createdAt,value
2023-12-01T00:01:12.525Z,-0.98
2023-12-01T00:03:39.323Z,-0.97
2023-12-01T00:06:06.473Z,-0.97
2023-12-01T00:08:33.258Z,-0.94
2023-12-01T00:10:59.957Z,-0.92
2023-12-01T00:13:26.774Z,-0.95
2023-12-01T00:15:53.479Z,-0.98
2023-12-01T00:18:20.141Z,-0.97
2023-12-01T00:20:46.838Z,-1.00
2023-12-01T00:23:13.530Z,-1.01
2023-12-01T00:25:40.216Z,-0.99
2023-12-01T00:28:06.940Z,-0.95
2023-12-01T00:30:35.357Z,-0.91
2023-12-01T00:33:02.621Z,-0.98
2023-12-01T00:35:29.486Z,-0.97
2023-12-01T00:37:56.230Z,-0.89
2023-12-01T00:40:23.389Z,-0.89
2023-12-01T00:42:50.124Z,-0.90
2023-12-01T00:45:17.086Z,-0.94
2023-12-01T00:47:44.095Z,-0.94
2023-12-01T00:50:10.899Z,-0.96
2023-12-01T00:52:37.641Z,-0.96
2023-12-01T00:55:04.609Z,-0.94
2023-12-01T00:57:31.680Z,-0.92
2023-12-01T00:59:58.388Z,-1.02
2023-12-01T01:02:25.114Z,-1.01
2023-12-01T01:04:52.049Z,-1.01
2023-12-01T01:07:18.784Z,-1.02
2023-12-01T01:09:46.391Z,-1.00
2023-12-01T01:12:13.155Z,-0.99
2023-12-01T01:14:39.934Z,-0.99
2023-12-01T01:17:06.703Z,-0.99
2023-12-01T01:19:33.468Z,-0.99
2023-12-01T01:22:00.211Z,-1.03
2023-12-01T01:24:26.986Z,-1.01
2023-12-01T01:26:53.646Z,-1.03
2023-12-01T01:29:20.381Z,-1.03
2023-12-01T01:31:47.127Z,-0.99
2023-12-01T01:34:13.815Z,-1.00
2023-12-01T01:36:40.525Z,-1.00
2023-12-01T01:39:07.315Z,-1.00
2023-12-01T01:41:33.997Z,-1.00
2023-12-01T01:44:00.745Z,-0.97
2023-12-01T01:46:27.641Z,-1.00
2023-12-01T01:48:56.438Z,-1.06
2023-12-01T01:51:23.515Z,-1.04
2023-12-01T01:53:50.761Z,-0.99
2023-12-01T01:56:18.211Z,-1.00
2023-12-01T01:58:44.947Z,-1.00
2023-12-01T02:01:11.722Z,-0.96
2023-12-01T02:03:39.256Z,-0.91
2023-12-01T02:06:07.654Z,-0.96
2023-12-01T02:08:35.154Z,-0.96
2023-12-01T02:11:02.194Z,-0.93
2023-12-01T02:13:31.753Z,-0.97
2023-12-01T02:16:01.532Z,-0.96
2023-12-01T02:18:35.059Z,-0.97
2023-12-01T02:21:02.731Z,-0.98
2023-12-01T02:23:29.407Z,-0.94
2023-12-01T02:25:56.219Z,-0.93
2023-12-01T02:28:22.981Z,-0.93
2023-12-01T02:30:54.745Z,-0.94
2023-12-01T02:33:22.181Z,-1.01
2023-12-01T02:35:53.666Z,-1.00
2023-12-01T02:38:21.234Z,-1.01
2023-12-01T02:40:52.051Z,-1.00
2023-12-01T02:43:21.217Z,-1.04
2023-12-01T02:45:48.971Z,-1.00
2023-12-01T02:48:16.464Z,-0.97
2023-12-01T02:50:43.412Z,-0.95
2023-12-01T02:53:10.471Z,-0.95
2023-12-01T02:55:37.223Z,-1.00
2023-12-01T02:58:04.188Z,-0.97
2023-12-01T03:00:31.012Z,-0.99
2023-12-01T03:02:57.722Z,-0.93
2023-12-01T03:05:24.980Z,-0.90
2023-12-01T03:07:52.298Z,-0.94
2023-12-01T03:10:19.162Z,-0.94
2023-12-01T03:12:46.394Z,-0.96
2023-12-01T03:15:15.292Z,-1.00
2023-12-01T03:17:42.237Z,-0.97
2023-12-01T03:20:12.053Z,-1.01
2023-12-01T03:22:40.369Z,-1.03
2023-12-01T03:25:14.068Z,-1.00
2023-12-01T03:27:45.856Z,-1.06
2023-12-01T03:30:17.751Z,-1.00
2023-12-01T03:32:51.571Z,-1.01
2023-12-01T03:35:26.238Z,-1.00
2023-12-01T03:37:58.049Z,-0.99
2023-12-01T03:40:26.123Z,-1.00
2023-12-01T03:42:53.389Z,-0.98
2023-12-01T03:45:20.543Z,-0.95
2023-12-01T03:47:49.024Z,-0.96
2023-12-01T03:50:16.817Z,-0.97
2023-12-01T03:52:45.926Z,-0.98
2023-12-01T03:55:13.825Z,-1.01
2023-12-01T03:57:42.133Z,-1.00
2023-12-01T04:00:20.731Z,-1.04
2023-12-01T04:02:49.523Z,-1.07
2023-12-01T04:05:21.105Z,-1.04
2023-12-01T04:07:55.492Z,-1.00
2023-12-01T04:10:25.016Z,-1.00
2023-12-01T04:12:51.957Z,-1.02
2023-12-01T04:15:26.228Z,-1.03
2023-12-01T04:17:54.094Z,-1.05
2023-12-01T04:20:27.506Z,-1.11
2023-12-01T04:22:58.282Z,-1.10
2023-12-01T04:25:25.298Z,-1.12
2023-12-01T04:27:53.284Z,-1.13
2023-12-01T04:30:22.191Z,-1.14
2023-12-01T04:32:55.686Z,-1.11
2023-12-01T04:35:26.220Z,-1.12
2023-12-01T04:37:53.055Z,-1.12
2023-12-01T04:40:19.888Z,-1.09
2023-12-01T04:42:47.076Z,-1.14
2023-12-01T04:45:16.531Z,-1.09
2023-12-01T04:47:45.195Z,-1.11
2023-12-01T04:50:14.723Z,-1.16
2023-12-01T04:52:45.948Z,-1.14
2023-12-01T04:55:17.503Z,-1.13
2023-12-01T04:57:45.590Z,-1.16
2023-12-01T05:00:21.148Z,-1.13
2023-12-01T05:02:52.700Z,-1.17
2023-12-01T05:05:26.389Z,-1.15
2023-12-01T05:07:58.794Z,-1.12
2023-12-01T05:10:30.532Z,-1.08
2023-12-01T05:12:59.695Z,-1.08
2023-12-01T05:15:28.334Z,-1.10
2023-12-01T05:17:56.413Z,-1.09
2023-12-01T05:20:28.743Z,-1.17
2023-12-01T05:23:00.320Z,-1.19
2023-12-01T05:25:28.810Z,-1.23
2023-12-01T05:27:57.461Z,-1.19
2023-12-01T05:30:34.478Z,-1.20
2023-12-01T05:33:01.966Z,-1.20
2023-12-01T05:35:29.480Z,-1.20
2023-12-01T05:37:58.050Z,-1.17
2023-12-01T05:40:33.598Z,-1.17
2023-12-01T05:43:00.468Z,-1.26
2023-12-01T05:45:29.051Z,-1.24
2023-12-01T05:47:57.304Z,-1.25
2023-12-01T05:50:24.735Z,-1.22
2023-12-01T05:52:53.331Z,-1.25
2023-12-01T05:55:39.048Z,-1.29
2023-12-01T05:58:11.581Z,-1.31
2023-12-01T06:00:38.916Z,-1.28
2023-12-01T06:03:11.098Z,-1.26
2023-12-01T06:05:39.533Z,-1.33
2023-12-01T06:08:10.050Z,-1.29
2023-12-01T06:10:37.217Z,-1.27
2023-12-01T06:13:05.023Z,-1.23
2023-12-01T06:15:32.168Z,-1.17
2023-12-01T06:18:00.340Z,-1.15
2023-12-01T06:20:27.614Z,-1.14
2023-12-01T06:22:59.395Z,-1.18
2023-12-01T06:25:30.102Z,-1.19
2023-12-01T06:28:00.909Z,-1.20
2023-12-01T06:30:29.137Z,-1.20
2023-12-01T06:32:57.120Z,-1.19
2023-12-01T06:35:24.037Z,-1.24
2023-12-01T06:37:51.087Z,-1.28
2023-12-01T06:40:20.024Z,-1.31
2023-12-01T06:42:50.046Z,-1.36
2023-12-01T06:45:21.382Z,-1.42
2023-12-01T06:47:49.972Z,-1.43
2023-12-01T06:50:18.560Z,-1.40
2023-12-01T06:52:46.960Z,-1.40
2023-12-01T06:55:13.833Z,-1.43
2023-12-01T06:57:45.509Z,-1.46
2023-12-01T07:00:29.290Z,-1.55
2023-12-01T07:03:11.132Z,-1.53
2023-12-01T07:05:40.683Z,-1.56
2023-12-01T07:08:15.974Z,-1.58
2023-12-01T07:10:43.768Z,-1.63
2023-12-01T07:13:10.997Z,-1.60
2023-12-01T07:15:39.098Z,-1.62
2023-12-01T07:18:06.925Z,-1.63
2023-12-01T07:20:34.798Z,-1.64
2023-12-01T07:23:04.183Z,-1.66
2023-12-01T07:25:32.714Z,-1.65
2023-12-01T07:28:01.336Z,-1.74
2023-12-01T07:30:31.267Z,-1.72
2023-12-01T07:33:00.522Z,-1.75
2023-12-01T07:35:27.385Z,-1.76
2023-12-01T07:37:54.960Z,-1.75
2023-12-01T07:40:23.387Z,-1.79
2023-12-01T07:42:52.020Z,-1.78
2023-12-01T07:45:19.121Z,-1.74
2023-12-01T07:47:49.874Z,-1.70
2023-12-01T07:50:17.679Z,-1.80
2023-12-01T07:52:45.715Z,-1.85
2023-12-01T07:55:12.999Z,-1.91
2023-12-01T07:57:40.435Z,-1.89
2023-12-01T08:00:16.134Z,-1.89
2023-12-01T08:02:46.042Z,-1.84
2023-12-01T08:05:16.874Z,-1.88
2023-12-01T08:07:53.622Z,-1.87
2023-12-01T08:10:22.437Z,-1.84
2023-12-01T08:12:50.812Z,-1.89
2023-12-01T08:15:18.053Z,-1.84
2023-12-01T08:17:46.255Z,-1.85
2023-12-01T08:20:13.916Z,-1.85
2023-12-01T08:22:41.074Z,-1.86
2023-12-01T08:25:09.859Z,-1.88
2023-12-01T08:27:37.523Z,-1.95
2023-12-01T08:30:04.932Z,-1.94
2023-12-01T08:32:31.988Z,-1.91
2023-12-01T08:34:58.995Z,-1.87
2023-12-01T08:37:25.796Z,-1.88
2023-12-01T08:39:52.756Z,-1.88
2023-12-01T08:42:20.274Z,-1.85
2023-12-01T08:44:47.117Z,-1.85
2023-12-01T08:47:15.265Z,-1.91
2023-12-01T08:49:42.054Z,-1.85
2023-12-01T08:52:08.907Z,-1.84
2023-12-01T08:54:36.139Z,-1.82
2023-12-01T08:57:03.006Z,-1.83
2023-12-01T08:59:29.705Z,-1.86
2023-12-01T09:01:57.186Z,-1.90
2023-12-01T09:04:24.022Z,-1.93
2023-12-01T09:06:50.813Z,-1.97
2023-12-01T09:09:18.663Z,-1.98
2023-12-01T09:11:45.517Z,-2.02
2023-12-01T09:14:12.257Z,-1.99
2023-12-01T09:16:38.952Z,-1.99
2023-12-01T09:19:07.609Z,-2.03
2023-12-01T09:21:34.985Z,-2.00
2023-12-01T09:24:01.855Z,-1.91
2023-12-01T09:26:30.013Z,-1.91
2023-12-01T09:28:56.812Z,-1.89
2023-12-01T09:31:23.955Z,-1.91
2023-12-01T09:33:51.276Z,-1.94
2023-12-01T09:36:18.519Z,-1.94
2023-12-01T09:38:45.866Z,-2.03
2023-12-01T09:41:12.590Z,-1.95
2023-12-01T09:43:40.116Z,-1.92
2023-12-01T09:46:08.392Z,-1.91
2023-12-01T09:48:38.294Z,-1.85
2023-12-01T09:51:05.444Z,-1.83
2023-12-01T09:53:32.451Z,-1.80
2023-12-01T09:56:00.573Z,-1.69
2023-12-01T09:58:28.491Z,-1.60
2023-12-01T10:00:55.138Z,-1.52
2023-12-01T10:03:21.914Z,-1.55
2023-12-01T10:05:49.127Z,-1.50
2023-12-01T10:08:18.909Z,-1.63
2023-12-01T10:10:46.302Z,-1.48
2023-12-01T10:13:14.846Z,-1.37
2023-12-01T10:15:42.228Z,-1.43
2023-12-01T10:18:26.450Z,-1.39
2023-12-01T10:21:05.105Z,-1.52
2023-12-01T10:23:34.308Z,-1.48
2023-12-01T10:26:05.452Z,-1.40
2023-12-01T10:28:41.163Z,-1.27
2023-12-01T10:31:08.989Z,-1.19
2023-12-01T10:33:37.056Z,-1.20
2023-12-01T10:36:04.932Z,-1.04
2023-12-01T10:38:32.371Z,-1.02
2023-12-01T10:41:00.699Z,-0.96
2023-12-01T10:43:31.426Z,-1.08
2023-12-01T10:46:04.125Z,-1.03
2023-12-01T10:48:33.672Z,-1.10
2023-12-01T10:51:04.837Z,-1.07
2023-12-01T10:53:31.931Z,-0.99
2023-12-01T10:56:04.085Z,-0.99
2023-12-01T10:58:36.117Z,-0.94
2023-12-01T11:01:03.914Z,-1.07
2023-12-01T11:03:33.082Z,-1.01
2023-12-01T11:06:05.692Z,-1.13
2023-12-01T11:08:53.946Z,-1.19
2023-12-01T11:11:55.363Z,-1.12
2023-12-01T11:14:26.854Z,-1.14
2023-12-01T11:16:54.839Z,-1.34
2023-12-01T11:19:24.667Z,-1.20
2023-12-01T11:21:57.982Z,-1.45
2023-12-01T11:24:36.312Z,-1.36
2023-12-01T11:27:07.614Z,-1.25
2023-12-01T11:29:40.271Z,-1.10
2023-12-01T11:32:07.389Z,-1.19
2023-12-01T11:34:34.488Z,-1.17
2023-12-01T11:37:04.235Z,-1.07
2023-12-01T11:39:31.362Z,-1.07
2023-12-01T11:42:05.535Z,-1.25
2023-12-01T11:44:38.924Z,-1.27
2023-12-01T11:47:08.942Z,-1.35
2023-12-01T11:49:46.555Z,-1.15
2023-12-01T11:52:21.510Z,-1.15
2023-12-01T11:54:50.605Z,-1.13
2023-12-01T11:57:19.821Z,-1.16
2023-12-01T11:59:47.368Z,-1.20
2023-12-01T12:02:15.867Z,-1.20
2023-12-01T12:04:48.370Z,-1.22
2023-12-01T12:07:17.330Z,-1.26
2023-12-01T12:09:46.239Z,-1.30
2023-12-01T12:12:15.232Z,-1.63
2023-12-01T12:14:43.045Z,-1.55
2023-12-01T12:17:10.338Z,-1.52
2023-12-01T12:19:50.401Z,-1.58
2023-12-01T12:22:21.627Z,-1.54
2023-12-01T12:24:49.425Z,-1.78
2023-12-01T12:27:16.676Z,-1.77
2023-12-01T12:29:43.697Z,-1.71
2023-12-01T12:32:10.608Z,-1.74
2023-12-01T12:34:37.759Z,-1.75
2023-12-01T12:37:04.780Z,-1.85
2023-12-01T12:39:33.174Z,-1.84
2023-12-01T12:42:01.276Z,-1.80
2023-12-01T12:44:32.713Z,-1.93
2023-12-01T12:47:06.897Z,-1.92
2023-12-01T12:49:35.610Z,-1.98
2023-12-01T12:52:04.508Z,-1.95
2023-12-01T12:54:32.220Z,-1.93
2023-12-01T12:56:59.238Z,-1.90
2023-12-01T12:59:25.963Z,-1.89
2023-12-01T13:01:52.941Z,-1.90
2023-12-01T13:04:21.246Z,-1.94
2023-12-01T13:06:49.620Z,-1.91
2023-12-01T13:09:18.039Z,-1.95
2023-12-01T13:11:45.559Z,-1.91
2023-12-01T13:14:14.527Z,-1.91
2023-12-01T13:16:52.428Z,-1.91
2023-12-01T13:19:23.713Z,-1.91
2023-12-01T13:21:54.313Z,-1.93
2023-12-01T13:24:23.219Z,-1.96
2023-12-01T13:26:50.149Z,-1.96
2023-12-01T13:29:17.044Z,-1.98
2023-12-01T13:31:43.920Z,-2.01
2023-12-01T13:34:10.666Z,-2.16
2023-12-01T13:36:37.358Z,-2.22
2023-12-01T13:39:04.510Z,-2.26
2023-12-01T13:41:31.962Z,-2.27
2023-12-01T13:43:59.022Z,-2.21
2023-12-01T13:46:25.767Z,-2.22
2023-12-01T13:48:52.778Z,-2.19
2023-12-01T13:51:20.349Z,-2.16
2023-12-01T13:53:47.222Z,-2.20
2023-12-01T13:56:14.055Z,-2.18
2023-12-01T13:58:44.669Z,-2.12
2023-12-01T14:01:13.590Z,-2.14
2023-12-01T14:03:40.735Z,-2.28
2023-12-01T14:06:08.278Z,-2.22
2023-12-01T14:08:36.025Z,-2.22
2023-12-01T14:11:03.835Z,-2.21
2023-12-01T14:13:30.631Z,-2.24
2023-12-01T14:15:57.322Z,-2.26
2023-12-01T14:18:24.229Z,-2.29
2023-12-01T14:20:51.275Z,-2.27
2023-12-01T14:23:18.116Z,-2.29
2023-12-01T14:25:44.733Z,-2.26
2023-12-01T14:28:11.447Z,-2.28
2023-12-01T14:30:38.182Z,-2.35
2023-12-01T14:33:05.001Z,-2.28
2023-12-01T14:35:31.823Z,-2.30
2023-12-01T14:37:59.648Z,-2.31
2023-12-01T14:40:26.379Z,-2.37
2023-12-01T14:42:52.995Z,-2.34
2023-12-01T14:45:19.790Z,-2.27
2023-12-01T14:47:46.670Z,-2.31
2023-12-01T14:50:13.411Z,-2.31
2023-12-01T14:52:40.275Z,-2.33
2023-12-01T14:55:07.206Z,-2.36
2023-12-01T14:57:33.865Z,-2.39
2023-12-01T15:00:00.667Z,-2.40
2023-12-01T15:02:27.580Z,-2.58
2023-12-01T15:04:54.337Z,-2.54
2023-12-01T15:07:21.006Z,-2.55
2023-12-01T15:09:47.607Z,-2.54
2023-12-01T15:12:14.325Z,-2.55
2023-12-01T15:14:40.978Z,-2.47
2023-12-01T15:17:07.635Z,-2.50
2023-12-01T15:19:34.324Z,-2.51
2023-12-01T15:22:02.425Z,-2.59
2023-12-01T15:24:29.562Z,-2.62
2023-12-01T15:26:59.052Z,-2.68
2023-12-01T15:29:25.728Z,-2.62
2023-12-01T15:31:52.498Z,-2.63
2023-12-01T15:34:19.370Z,-2.67
2023-12-01T15:36:46.144Z,-2.70
2023-12-01T15:39:13.002Z,-2.80
2023-12-01T15:41:40.267Z,-2.83
2023-12-01T15:44:08.259Z,-2.86
2023-12-01T15:46:35.241Z,-2.88
2023-12-01T15:49:02.131Z,-2.99
2023-12-01T15:51:28.900Z,-3.00
2023-12-01T15:53:56.237Z,-2.95
2023-12-01T15:56:23.099Z,-2.97
2023-12-01T15:58:49.850Z,-2.97
2023-12-01T16:01:16.835Z,-3.02
2023-12-01T16:03:44.586Z,-3.08
2023-12-01T16:06:11.673Z,-3.01
2023-12-01T16:08:38.954Z,-2.98
2023-12-01T16:11:07.744Z,-2.95
2023-12-01T16:13:34.827Z,-2.93
2023-12-01T16:16:01.657Z,-2.93
2023-12-01T16:18:28.817Z,-3.02
2023-12-01T16:20:55.935Z,-3.05
2023-12-01T16:23:22.743Z,-3.07
2023-12-01T16:25:50.700Z,-3.08
2023-12-01T16:28:17.795Z,-3.00
2023-12-01T16:30:44.832Z,-3.03
2023-12-01T16:33:11.732Z,-3.02
2023-12-01T16:35:38.564Z,-3.07
2023-12-01T16:38:06.659Z,-3.07
2023-12-01T16:40:33.557Z,-2.98
2023-12-01T16:43:00.394Z,-3.10
2023-12-01T16:45:27.190Z,-3.08
2023-12-01T16:47:54.050Z,-3.08
2023-12-01T16:50:20.845Z,-3.07
2023-12-01T16:52:47.615Z,-3.04
2023-12-01T16:55:16.283Z,-3.05
2023-12-01T16:57:43.336Z,-3.06
2023-12-01T17:00:10.861Z,-3.05
2023-12-01T17:02:39.514Z,-3.00
2023-12-01T17:05:06.428Z,-2.96
2023-12-01T17:07:33.144Z,-3.04
2023-12-01T17:09:59.980Z,-3.04
2023-12-01T17:12:27.012Z,-3.07
2023-12-01T17:14:53.706Z,-3.05
2023-12-01T17:17:20.437Z,-3.08
2023-12-01T17:19:47.215Z,-3.13
2023-12-01T17:22:14.401Z,-3.07
2023-12-01T17:24:43.115Z,-3.12
2023-12-01T17:27:13.489Z,-3.12
2023-12-01T17:29:43.587Z,-3.11
2023-12-01T17:32:11.007Z,-3.09
2023-12-01T17:34:38.225Z,-3.08
2023-12-01T17:37:05.423Z,-3.26
2023-12-01T17:39:32.236Z,-3.25
2023-12-01T17:41:58.999Z,-3.27
2023-12-01T17:44:26.328Z,-3.28
2023-12-01T17:46:53.165Z,-3.33
2023-12-01T17:49:19.928Z,-3.31
2023-12-01T17:51:46.883Z,-3.34
2023-12-01T17:54:15.176Z,-3.37
2023-12-01T17:56:41.982Z,-3.35
2023-12-01T17:59:08.960Z,-3.50
2023-12-01T18:01:36.487Z,-3.49
2023-12-01T18:04:04.375Z,-3.42
2023-12-01T18:06:31.646Z,-3.39
2023-12-01T18:08:59.186Z,-3.46
2023-12-01T18:11:26.036Z,-3.42
2023-12-01T18:13:52.695Z,-3.39
2023-12-01T18:16:21.668Z,-3.50
2023-12-01T18:18:48.732Z,-3.53
2023-12-01T18:21:15.565Z,-3.54
2023-12-01T18:23:42.372Z,-3.61
2023-12-01T18:26:09.021Z,-3.66
2023-12-01T18:28:35.680Z,-3.66
2023-12-01T18:31:02.427Z,-3.73
2023-12-01T18:33:29.373Z,-3.72
2023-12-01T18:35:56.197Z,-3.72
2023-12-01T18:38:22.965Z,-3.73
2023-12-01T18:40:49.646Z,-3.71
2023-12-01T18:43:16.433Z,-3.62
2023-12-01T18:45:45.877Z,-3.63
2023-12-01T18:48:12.705Z,-3.70
2023-12-01T18:50:39.539Z,-3.63
2023-12-01T18:53:06.234Z,-3.70
2023-12-01T18:55:33.168Z,-3.70
2023-12-01T18:57:59.868Z,-3.70
2023-12-01T19:00:29.766Z,-3.67
2023-12-01T19:02:56.647Z,-3.73
2023-12-01T19:05:23.901Z,-3.76
2023-12-01T19:07:51.063Z,-3.70
2023-12-01T19:10:18.088Z,-3.74
2023-12-01T19:12:44.769Z,-3.74
2023-12-01T19:15:11.776Z,-3.74
2023-12-01T19:17:38.655Z,-3.73
2023-12-01T19:20:05.923Z,-3.72
2023-12-01T19:22:33.263Z,-3.71
2023-12-01T19:25:04.098Z,-3.70
2023-12-01T19:27:30.853Z,-3.73
2023-12-01T19:29:57.626Z,-3.70
2023-12-01T19:32:24.371Z,-3.71
2023-12-01T19:34:51.094Z,-3.68
2023-12-01T19:37:17.849Z,-3.65
2023-12-01T19:39:44.588Z,-3.68
2023-12-01T19:42:12.000Z,-3.68
2023-12-01T19:44:39.079Z,-3.76
2023-12-01T19:47:06.046Z,-3.74
2023-12-01T19:49:33.030Z,-3.71
2023-12-01T19:51:59.729Z,-3.72
2023-12-01T19:54:26.461Z,-3.72
2023-12-01T19:56:53.264Z,-3.77
2023-12-01T19:59:20.483Z,-3.81
2023-12-01T20:01:48.482Z,-3.78
2023-12-01T20:04:15.493Z,-3.80
2023-12-01T20:06:42.261Z,-3.82
2023-12-01T20:09:09.436Z,-3.79
2023-12-01T20:11:36.159Z,-3.80
2023-12-01T20:14:03.001Z,-3.89
2023-12-01T20:16:29.715Z,-3.89
2023-12-01T20:18:57.207Z,-3.88
2023-12-01T20:21:24.548Z,-3.81
2023-12-01T20:23:53.131Z,-3.80
2023-12-01T20:26:20.102Z,-3.85
2023-12-01T20:28:46.773Z,-3.88
2023-12-01T20:31:13.432Z,-3.88
2023-12-01T20:33:40.201Z,-3.81
2023-12-01T20:36:07.477Z,-3.78
2023-12-01T20:38:36.051Z,-3.81
2023-12-01T20:41:06.519Z,-3.81
2023-12-01T20:43:33.296Z,-3.80
2023-12-01T20:46:00.079Z,-3.76
2023-12-01T20:48:27.099Z,-3.84
2023-12-01T20:50:54.055Z,-3.80
2023-12-01T20:53:20.800Z,-3.90
2023-12-01T20:55:47.514Z,-3.93
2023-12-01T20:58:14.176Z,-3.92
2023-12-01T21:00:40.870Z,-3.89
2023-12-01T21:03:07.676Z,-3.91
2023-12-01T21:05:34.466Z,-3.90
2023-12-01T21:08:01.185Z,-3.90
2023-12-01T21:10:27.928Z,-3.88
2023-12-01T21:12:54.645Z,-3.88
2023-12-01T21:15:21.394Z,-3.85
2023-12-01T21:17:48.164Z,-3.85
2023-12-01T21:20:15.112Z,-3.86
2023-12-01T21:22:41.774Z,-3.85
2023-12-01T21:25:10.116Z,-3.86
2023-12-01T21:27:37.121Z,-3.87
2023-12-01T21:30:04.504Z,-3.83
2023-12-01T21:32:33.768Z,-3.87
2023-12-01T21:35:00.391Z,-3.91
2023-12-01T21:37:27.006Z,-3.91
2023-12-01T21:39:53.719Z,-3.91
2023-12-01T21:42:20.471Z,-3.90
2023-12-01T21:44:47.189Z,-3.93
2023-12-01T21:47:13.789Z,-3.92
2023-12-01T21:49:40.834Z,-3.90
2023-12-01T21:52:07.645Z,-3.88
2023-12-01T21:54:34.371Z,-3.86
2023-12-01T21:57:01.131Z,-3.89
2023-12-01T21:59:27.802Z,-3.86
2023-12-01T22:01:54.524Z,-3.94
2023-12-01T22:04:21.186Z,-3.93
2023-12-01T22:06:50.820Z,-3.90
2023-12-01T22:09:18.377Z,-3.93
2023-12-01T22:11:45.068Z,-3.96
2023-12-01T22:14:12.421Z,-3.98
2023-12-01T22:16:40.130Z,-3.94
2023-12-01T22:21:37.701Z,-4.06
2023-12-01T22:24:05.018Z,-4.13
2023-12-01T22:26:31.736Z,-4.16
2023-12-01T22:28:58.424Z,-4.15
2023-12-01T22:31:25.081Z,-4.12
2023-12-01T22:33:51.739Z,-4.13
2023-12-01T22:36:18.463Z,-4.14
2023-12-01T22:38:45.067Z,-4.10
2023-12-01T22:41:11.724Z,-4.10
2023-12-01T22:43:39.418Z,-4.05
2023-12-01T22:46:07.018Z,-4.07
2023-12-01T22:48:33.823Z,-4.04
2023-12-01T22:51:00.668Z,-4.12
2023-12-01T22:53:27.420Z,-4.09
2023-12-01T22:55:54.101Z,-4.05
2023-12-01T22:58:20.752Z,-4.03
2023-12-01T23:00:47.381Z,-4.04
2023-12-01T23:03:14.277Z,-4.00
2023-12-01T23:05:41.120Z,-3.99
2023-12-01T23:08:07.785Z,-3.99
2023-12-01T23:10:34.504Z,-3.95
2023-12-01T23:13:01.176Z,-4.00
2023-12-01T23:15:28.383Z,-3.97
2023-12-01T23:17:58.337Z,-4.04
2023-12-01T23:20:28.034Z,-4.01
2023-12-01T23:22:55.423Z,-4.06
2023-12-01T23:25:22.199Z,-4.06
2023-12-01T23:27:49.098Z,-4.11
2023-12-01T23:30:16.276Z,-4.06
2023-12-01T23:32:43.265Z,-4.08
2023-12-01T23:35:10.170Z,-4.09
2023-12-01T23:37:37.278Z,-4.08
2023-12-01T23:40:04.686Z,-4.04
2023-12-01T23:42:31.522Z,-4.07
2023-12-01T23:44:59.098Z,-4.07
2023-12-01T23:47:25.883Z,-4.04
2023-12-01T23:49:52.610Z,-3.98
2023-12-01T23:52:19.693Z,-3.96
2023-12-01T23:54:46.321Z,-4.00
2023-12-01T23:57:13.219Z,-4.04
2023-12-01T23:59:40.277Z,-4.04
